LDSB/BWK METAR and TAF weather

Enter ICAO airport designator
Station Type Date Time Source
LDSB METAR 2019/08/18 09:00 UTC NOAA

LDSB 180900Z 22007KT 180V250 CAVOK 27/13 Q1018


Station Type Date Time Source
LDSB Decoded METAR 2019/08/18 09:00 UTC NOAA

Station name not available
Aug 18, 2019 - 05:00 AM EDT / 2019.08.18 0900 UTC
Wind: from the SW (220 degrees) at 8 MPH (7 KT) (direction variable):0
Visibility: greater than 7 mile(s):0
Temperature: 80 F (27 C)
Dew Point: 55 F (13 C)
Relative Humidity: 41%
Pressure (altimeter): 30.06 in. Hg (1018 hPa)
ob: LDSB 180900Z 22007KT 180V250 CAVOK 27/13 Q1018
cycle: 9

Station Type Date Time Source
LDSB TAF 2019/08/18 09:03 UTC NOAA

TAF TAF LDSB 180900Z 1809/1906 22008KT CAVOK TX29/1812Z TN22/1904Z
BECMG 1814/1816 30008KT

Example: see airport list